This is the latest recevied weather packets stored in our database for station/object DORR-WX. If no packets are shown the sender has not sent any weather packets the latest 1 day(s).
| Time | Temp. | Humidity | Pressure | Rain* | Wind** | Luminosity | Snow |
|---|---|---|---|---|---|---|---|
| 1778088693 | 11.11° C | 35% | 989.9 hPa | 0 mm | - | - | - |
| 1778086908 | 11.67° C | 35% | 989.8 hPa | 0 mm | - | - | - |
| 1778085976 | 11.11° C | 38% | 989.3 hPa | 0 mm | - | - | - |
| 1778084176 | 10.56° C | 38% | 989.3 hPa | 0 mm | - | - | - |
| 1778083307 | 10.56° C | 38% | 989.3 hPa | 0 mm | - | - | - |
| 1778082375 | 10.56° C | 42% | 989.8 hPa | 0 mm | - | - | - |
| 1778081489 | 10° C | 42% | 989 hPa | 0 mm | - | - | - |
| 1778078776 | 9.44° C | 50% | 989.3 hPa | 0 mm | - | - | - |
| 1778076976 | 8.33° C | 50% | 989.3 hPa | 0 mm | - | - | - |
| 1778076112 | 8.33° C | 47% | 988.9 hPa | 0 mm | - | - | - |
| 1778071576 | 6.11° C | 68% | 987.1 hPa | 0 mm | - | - | - |
| 1778066173 | 2.78° C | 70% | 986.4 hPa | 0 mm | - | - | - |
| 1778065309 | 2.22° C | 70% | 986.4 hPa | 0 mm | - | - | - |
| 1778064372 | 2.22° C | 69% | 986.2 hPa | 0 mm | - | - | - |
| 1778058111 | 3.33° C | 64% | 985.8 hPa | 0 mm | - | - | - |
| 1778057173 | 3.33° C | 62% | 985.3 hPa | 0 mm | - | - | - |
| 1778056287 | 3.33° C | 64% | 985.7 hPa | 0 mm | - | - | - |
| 1778055372 | 3.89° C | 64% | 985.7 hPa | 0 mm | - | - | - |
| 1778054512 | 3.89° C | 64% | 985.7 hPa | 0 mm | - | - | - |
| 1778052691 | 3.89° C | 63% | 985.5 hPa | 0 mm | - | - | - |
| 1778051772 | 4.44° C | 63% | 985.5 hPa | 0 mm | - | - | - |
| 1778050902 | 5° C | 63% | 985.5 hPa | 0 mm | - | - | - |
| 1778049972 | 5° C | 69% | 985.9 hPa | 0 mm | - | - | - |
| 1778049090 | 5° C | 69% | 985.9 hPa | 0 mm | - | - | - |
| 1778048172 | 5.56° C | 69% | 985.9 hPa | 0 mm | - | - | - |
* Rain latest hour (hover to see other rain measurements)
** Current wind speed in m/s (hover to see current wind gust speed)